sensor_id;sensor_type;location;lat;lon;timestamp;temperature;humidity
3794;DHT22;1912;51.358;12.282;2022-11-20T00:01:13;-4.10;1.00
3794;DHT22;1912;51.358;12.282;2022-11-20T00:03:40;-4.20;1.00
3794;DHT22;1912;51.358;12.282;2022-11-20T00:06:12;-4.20;1.00
3794;DHT22;1912;51.358;12.282;2022-11-20T00:08:39;-4.20;1.00
3794;DHT22;1912;51.358;12.282;2022-11-20T00:11:07;-4.30;1.00
3794;DHT22;1912;51.358;12.282;2022-11-20T00:13:34;-4.30;1.00
3794;DHT22;1912;51.358;12.282;2022-11-20T00:16:02;-4.30;1.00
3794;DHT22;1912;51.358;12.282;2022-11-20T00:18:29;-4.20;1.00
3794;DHT22;1912;51.358;12.282;2022-11-20T00:21:01;-4.30;1.00
3794;DHT22;1912;51.358;12.282;2022-11-20T00:23:37;-4.20;1.00
3794;DHT22;1912;51.358;12.282;2022-11-20T00:26:08;-4.20;1.00
3794;DHT22;1912;51.358;12.282;2022-11-20T00:28:35;-4.30;1.00
3794;DHT22;1912;51.358;12.282;2022-11-20T00:31:03;-4.40;1.00
3794;DHT22;1912;51.358;12.282;2022-11-20T00:33:33;-4.60;1.00
3794;DHT22;1912;51.358;12.282;2022-11-20T00:36:03;-4.60;1.00
3794;DHT22;1912;51.358;12.282;2022-11-20T00:38:31;-4.50;1.00
3794;DHT22;1912;51.358;12.282;2022-11-20T00:40:58;-4.40;1.00
3794;DHT22;1912;51.358;12.282;2022-11-20T00:43:26;-4.30;1.00
3794;DHT22;1912;51.358;12.282;2022-11-20T00:45:57;-4.30;1.00
3794;DHT22;1912;51.358;12.282;2022-11-20T00:48:23;-4.20;1.00
3794;DHT22;1912;51.358;12.282;2022-11-20T00:50:49;-4.20;1.00
3794;DHT22;1912;51.358;12.282;2022-11-20T00:53:15;-4.20;1.00
3794;DHT22;1912;51.358;12.282;2022-11-20T00:55:40;-4.20;1.00
3794;DHT22;1912;51.358;12.282;2022-11-20T00:58:06;-4.20;1.00
3794;DHT22;1912;51.358;12.282;2022-11-20T01:00:32;-4.20;1.00
3794;DHT22;1912;51.358;12.282;2022-11-20T01:02:58;-4.20;1.00
3794;DHT22;1912;51.358;12.282;2022-11-20T01:05:23;-4.20;1.00
3794;DHT22;1912;51.358;12.282;2022-11-20T01:07:49;-4.20;1.00
3794;DHT22;1912;51.358;12.282;2022-11-20T01:10:15;-4.20;1.00
3794;DHT22;1912;51.358;12.282;2022-11-20T01:12:40;-4.20;1.00
3794;DHT22;1912;51.358;12.282;2022-11-20T01:15:06;-4.20;1.00
3794;DHT22;1912;51.358;12.282;2022-11-20T01:17:33;-4.20;1.00
3794;DHT22;1912;51.358;12.282;2022-11-20T01:19:59;-4.20;1.00
3794;DHT22;1912;51.358;12.282;2022-11-20T01:22:24;-4.20;1.00
3794;DHT22;1912;51.358;12.282;2022-11-20T01:24:50;-4.20;1.00
3794;DHT22;1912;51.358;12.282;2022-11-20T01:27:16;-4.20;1.00
3794;DHT22;1912;51.358;12.282;2022-11-20T01:29:41;-4.10;1.00
3794;DHT22;1912;51.358;12.282;2022-11-20T01:32:07;-4.20;1.00
3794;DHT22;1912;51.358;12.282;2022-11-20T01:34:33;-4.20;1.00
3794;DHT22;1912;51.358;12.282;2022-11-20T01:36:58;-4.30;1.00
3794;DHT22;1912;51.358;12.282;2022-11-20T01:39:25;-4.30;1.00
3794;DHT22;1912;51.358;12.282;2022-11-20T01:41:53;-4.40;1.00
3794;DHT22;1912;51.358;12.282;2022-11-20T01:44:57;-4.40;1.00
3794;DHT22;1912;51.358;12.282;2022-11-20T01:47:39;-4.50;1.00
3794;DHT22;1912;51.358;12.282;2022-11-20T01:50:27;-4.40;1.00
3794;DHT22;1912;51.358;12.282;2022-11-20T01:53:02;-4.30;1.00
3794;DHT22;1912;51.358;12.282;2022-11-20T01:55:32;-4.30;1.00
3794;DHT22;1912;51.358;12.282;2022-11-20T01:58:01;-4.30;1.00
3794;DHT22;1912;51.358;12.282;2022-11-20T02:00:27;-4.40;1.00
3794;DHT22;1912;51.358;12.282;2022-11-20T02:03:01;-4.40;1.00
3794;DHT22;1912;51.358;12.282;2022-11-20T02:05:37;-4.40;1.00
3794;DHT22;1912;51.358;12.282;2022-11-20T02:08:07;-4.40;1.00
3794;DHT22;1912;51.358;12.282;2022-11-20T02:10:33;-4.60;1.00
3794;DHT22;1912;51.358;12.282;2022-11-20T02:12:59;-4.50;1.00
3794;DHT22;1912;51.358;12.282;2022-11-20T02:15:43;-4.50;1.00
3794;DHT22;1912;51.358;12.282;2022-11-20T02:18:10;-4.40;1.00
3794;DHT22;1912;51.358;12.282;2022-11-20T02:20:37;-4.50;1.00
3794;DHT22;1912;51.358;12.282;2022-11-20T02:25:42;-4.50;1.00
3794;DHT22;1912;51.358;12.282;2022-11-20T02:28:09;-4.60;1.00
3794;DHT22;1912;51.358;12.282;2022-11-20T02:30:35;-4.60;1.00
3794;DHT22;1912;51.358;12.282;2022-11-20T02:33:01;-4.60;1.00
3794;DHT22;1912;51.358;12.282;2022-11-20T02:37:57;-4.80;1.00
3794;DHT22;1912;51.358;12.282;2022-11-20T02:40:24;-4.80;1.00
3794;DHT22;1912;51.358;12.282;2022-11-20T02:42:54;-5.00;1.00
3794;DHT22;1912;51.358;12.282;2022-11-20T02:45:21;-5.10;1.00
3794;DHT22;1912;51.358;12.282;2022-11-20T02:47:48;-4.90;1.00
3794;DHT22;1912;51.358;12.282;2022-11-20T02:50:14;-4.90;1.00
3794;DHT22;1912;51.358;12.282;2022-11-20T02:52:40;-4.90;1.00
3794;DHT22;1912;51.358;12.282;2022-11-20T02:55:06;-4.80;1.00
3794;DHT22;1912;51.358;12.282;2022-11-20T02:57:32;-4.70;1.00
3794;DHT22;1912;51.358;12.282;2022-11-20T02:59:58;-4.80;1.00
3794;DHT22;1912;51.358;12.282;2022-11-20T03:02:23;-4.90;1.00
3794;DHT22;1912;51.358;12.282;2022-11-20T03:04:49;-4.90;1.00
3794;DHT22;1912;51.358;12.282;2022-11-20T03:07:15;-4.90;1.00
3794;DHT22;1912;51.358;12.282;2022-11-20T03:09:40;-4.80;1.00
3794;DHT22;1912;51.358;12.282;2022-11-20T03:12:06;-4.80;1.00
3794;DHT22;1912;51.358;12.282;2022-11-20T03:14:32;-4.80;1.00
3794;DHT22;1912;51.358;12.282;2022-11-20T03:16:58;-4.70;1.00
3794;DHT22;1912;51.358;12.282;2022-11-20T03:19:24;-4.80;1.00
3794;DHT22;1912;51.358;12.282;2022-11-20T03:21:50;-4.80;1.00
3794;DHT22;1912;51.358;12.282;2022-11-20T03:24:15;-4.80;1.00
3794;DHT22;1912;51.358;12.282;2022-11-20T03:26:41;-4.80;1.00
3794;DHT22;1912;51.358;12.282;2022-11-20T03:29:07;-4.70;1.00
3794;DHT22;1912;51.358;12.282;2022-11-20T03:31:38;-4.70;1.00
3794;DHT22;1912;51.358;12.282;2022-11-20T03:34:09;-4.70;1.00
3794;DHT22;1912;51.358;12.282;2022-11-20T03:36:38;-4.70;1.00
3794;DHT22;1912;51.358;12.282;2022-11-20T03:39:04;-4.70;1.00
3794;DHT22;1912;51.358;12.282;2022-11-20T03:41:34;-4.80;1.00
3794;DHT22;1912;51.358;12.282;2022-11-20T03:44:03;-4.80;1.00
3794;DHT22;1912;51.358;12.282;2022-11-20T03:46:30;-4.80;1.00
3794;DHT22;1912;51.358;12.282;2022-11-20T03:48:57;-4.90;1.00
3794;DHT22;1912;51.358;12.282;2022-11-20T03:51:25;-5.00;1.00
3794;DHT22;1912;51.358;12.282;2022-11-20T03:53:54;-5.00;1.00
3794;DHT22;1912;51.358;12.282;2022-11-20T03:56:24;-5.00;1.00
3794;DHT22;1912;51.358;12.282;2022-11-20T03:58:54;-5.00;1.00
3794;DHT22;1912;51.358;12.282;2022-11-20T04:01:23;-5.00;1.00
3794;DHT22;1912;51.358;12.282;2022-11-20T04:03:52;-5.00;1.00
3794;DHT22;1912;51.358;12.282;2022-11-20T04:06:24;-5.00;1.00
3794;DHT22;1912;51.358;12.282;2022-11-20T04:08:54;-5.00;1.00
3794;DHT22;1912;51.358;12.282;2022-11-20T04:11:23;-5.00;1.00
3794;DHT22;1912;51.358;12.282;2022-11-20T04:14:01;-5.00;1.00
3794;DHT22;1912;51.358;12.282;2022-11-20T04:16:33;-5.00;1.00
3794;DHT22;1912;51.358;12.282;2022-11-20T04:19:02;-5.00;1.00
3794;DHT22;1912;51.358;12.282;2022-11-20T04:21:29;-5.10;1.00
3794;DHT22;1912;51.358;12.282;2022-11-20T04:23:55;-5.10;1.00
3794;DHT22;1912;51.358;12.282;2022-11-20T04:26:24;-5.00;1.00
3794;DHT22;1912;51.358;12.282;2022-11-20T04:28:50;-5.00;1.00
3794;DHT22;1912;51.358;12.282;2022-11-20T04:31:22;-5.00;1.00
3794;DHT22;1912;51.358;12.282;2022-11-20T04:33:49;-5.10;1.00
3794;DHT22;1912;51.358;12.282;2022-11-20T04:36:18;-5.00;1.00
3794;DHT22;1912;51.358;12.282;2022-11-20T04:38:45;-5.00;1.00
3794;DHT22;1912;51.358;12.282;2022-11-20T04:41:15;-5.00;1.00
3794;DHT22;1912;51.358;12.282;2022-11-20T04:43:46;-5.00;1.00
3794;DHT22;1912;51.358;12.282;2022-11-20T04:46:19;-5.00;1.00
3794;DHT22;1912;51.358;12.282;2022-11-20T04:48:46;-5.00;1.00
3794;DHT22;1912;51.358;12.282;2022-11-20T04:51:13;-5.00;1.00
3794;DHT22;1912;51.358;12.282;2022-11-20T04:53:39;-5.00;1.00
3794;DHT22;1912;51.358;12.282;2022-11-20T04:56:07;-5.00;1.00
3794;DHT22;1912;51.358;12.282;2022-11-20T04:58:34;-5.00;1.00
3794;DHT22;1912;51.358;12.282;2022-11-20T05:01:09;-5.00;1.00
3794;DHT22;1912;51.358;12.282;2022-11-20T05:03:40;-5.10;1.00
3794;DHT22;1912;51.358;12.282;2022-11-20T05:06:07;-5.10;1.00
3794;DHT22;1912;51.358;12.282;2022-11-20T05:08:33;-5.10;1.00
3794;DHT22;1912;51.358;12.282;2022-11-20T05:11:20;-5.10;1.00
3794;DHT22;1912;51.358;12.282;2022-11-20T05:13:47;-5.10;1.00
3794;DHT22;1912;51.358;12.282;2022-11-20T05:16:18;-5.20;1.00
3794;DHT22;1912;51.358;12.282;2022-11-20T05:18:48;-5.10;1.00
3794;DHT22;1912;51.358;12.282;2022-11-20T05:21:14;-5.20;1.00
3794;DHT22;1912;51.358;12.282;2022-11-20T05:23:41;-5.20;1.00
3794;DHT22;1912;51.358;12.282;2022-11-20T05:26:13;-5.30;1.00
3794;DHT22;1912;51.358;12.282;2022-11-20T05:28:40;-5.30;1.00
3794;DHT22;1912;51.358;12.282;2022-11-20T05:33:32;-5.40;1.00
3794;DHT22;1912;51.358;12.282;2022-11-20T05:35:58;-5.30;1.00
3794;DHT22;1912;51.358;12.282;2022-11-20T05:38:24;-5.30;1.00
3794;DHT22;1912;51.358;12.282;2022-11-20T05:40:50;-5.20;1.00
3794;DHT22;1912;51.358;12.282;2022-11-20T05:43:15;-5.20;1.00
3794;DHT22;1912;51.358;12.282;2022-11-20T05:45:41;-5.20;1.00
3794;DHT22;1912;51.358;12.282;2022-11-20T05:48:06;-5.20;1.00
3794;DHT22;1912;51.358;12.282;2022-11-20T05:50:32;-5.20;1.00
3794;DHT22;1912;51.358;12.282;2022-11-20T05:52:59;-5.20;1.00
3794;DHT22;1912;51.358;12.282;2022-11-20T05:55:26;-5.20;1.00
3794;DHT22;1912;51.358;12.282;2022-11-20T05:57:55;-5.40;1.00
3794;DHT22;1912;51.358;12.282;2022-11-20T06:00:20;-5.50;1.00
3794;DHT22;1912;51.358;12.282;2022-11-20T06:02:46;-5.60;1.00
3794;DHT22;1912;51.358;12.282;2022-11-20T06:05:12;-5.70;1.00
3794;DHT22;1912;51.358;12.282;2022-11-20T06:07:38;-5.80;1.00
3794;DHT22;1912;51.358;12.282;2022-11-20T06:10:04;-5.60;1.00
3794;DHT22;1912;51.358;12.282;2022-11-20T06:12:31;-5.50;1.00
3794;DHT22;1912;51.358;12.282;2022-11-20T06:14:58;-5.50;1.00
3794;DHT22;1912;51.358;12.282;2022-11-20T06:17:24;-5.50;1.00
3794;DHT22;1912;51.358;12.282;2022-11-20T06:19:50;-5.50;1.00
3794;DHT22;1912;51.358;12.282;2022-11-20T06:22:15;-5.50;1.00
3794;DHT22;1912;51.358;12.282;2022-11-20T06:24:41;-5.50;1.00
3794;DHT22;1912;51.358;12.282;2022-11-20T06:27:07;-5.50;1.00
3794;DHT22;1912;51.358;12.282;2022-11-20T06:29:32;-5.60;1.00
3794;DHT22;1912;51.358;12.282;2022-11-20T06:31:58;-5.70;1.00
3794;DHT22;1912;51.358;12.282;2022-11-20T06:34:24;-5.80;1.00
3794;DHT22;1912;51.358;12.282;2022-11-20T06:36:49;-5.70;1.00
3794;DHT22;1912;51.358;12.282;2022-11-20T06:39:15;-5.60;1.00
3794;DHT22;1912;51.358;12.282;2022-11-20T06:41:41;-5.60;1.00
3794;DHT22;1912;51.358;12.282;2022-11-20T06:44:06;-5.60;1.00
3794;DHT22;1912;51.358;12.282;2022-11-20T06:46:32;-5.60;1.00
3794;DHT22;1912;51.358;12.282;2022-11-20T06:48:58;-5.60;1.00
3794;DHT22;1912;51.358;12.282;2022-11-20T06:51:23;-5.60;1.00
3794;DHT22;1912;51.358;12.282;2022-11-20T06:53:49;-5.60;1.00
3794;DHT22;1912;51.358;12.282;2022-11-20T06:56:15;-5.60;1.00
3794;DHT22;1912;51.358;12.282;2022-11-20T06:58:41;-5.60;1.00
3794;DHT22;1912;51.358;12.282;2022-11-20T07:01:10;-5.60;1.00
3794;DHT22;1912;51.358;12.282;2022-11-20T07:03:37;-5.50;1.00
3794;DHT22;1912;51.358;12.282;2022-11-20T07:06:03;-5.50;1.00
3794;DHT22;1912;51.358;12.282;2022-11-20T07:08:29;-5.50;1.00
3794;DHT22;1912;51.358;12.282;2022-11-20T07:11:00;-5.50;1.00
3794;DHT22;1912;51.358;12.282;2022-11-20T07:13:28;-5.50;1.00
3794;DHT22;1912;51.358;12.282;2022-11-20T07:15:54;-5.50;1.00
3794;DHT22;1912;51.358;12.282;2022-11-20T07:18:20;-5.60;1.00
3794;DHT22;1912;51.358;12.282;2022-11-20T07:20:46;-5.60;1.00
3794;DHT22;1912;51.358;12.282;2022-11-20T07:23:11;-5.70;1.00
3794;DHT22;1912;51.358;12.282;2022-11-20T07:25:37;-5.80;1.00
3794;DHT22;1912;51.358;12.282;2022-11-20T07:28:03;-5.80;1.00
3794;DHT22;1912;51.358;12.282;2022-11-20T07:30:29;-5.80;1.00
3794;DHT22;1912;51.358;12.282;2022-11-20T07:32:56;-5.70;1.00
3794;DHT22;1912;51.358;12.282;2022-11-20T07:35:23;-5.60;1.00
3794;DHT22;1912;51.358;12.282;2022-11-20T07:37:49;-5.70;1.00
3794;DHT22;1912;51.358;12.282;2022-11-20T07:40:16;-5.60;1.00
3794;DHT22;1912;51.358;12.282;2022-11-20T07:42:53;-5.50;1.00
3794;DHT22;1912;51.358;12.282;2022-11-20T07:45:21;-5.40;1.00
3794;DHT22;1912;51.358;12.282;2022-11-20T07:47:48;-5.30;1.00
3794;DHT22;1912;51.358;12.282;2022-11-20T07:50:14;-5.00;1.00
3794;DHT22;1912;51.358;12.282;2022-11-20T07:52:40;-4.90;1.00
3794;DHT22;1912;51.358;12.282;2022-11-20T07:55:07;-4.70;1.00
3794;DHT22;1912;51.358;12.282;2022-11-20T07:57:33;-4.50;1.00
3794;DHT22;1912;51.358;12.282;2022-11-20T07:59:59;-4.20;1.00
3794;DHT22;1912;51.358;12.282;2022-11-20T08:02:25;-4.20;1.00
3794;DHT22;1912;51.358;12.282;2022-11-20T08:04:50;-4.10;1.00
3794;DHT22;1912;51.358;12.282;2022-11-20T08:07:16;-4.00;1.00
3794;DHT22;1912;51.358;12.282;2022-11-20T08:09:42;-3.90;1.00
3794;DHT22;1912;51.358;12.282;2022-11-20T08:12:08;-3.80;1.00
3794;DHT22;1912;51.358;12.282;2022-11-20T08:14:53;-3.90;1.00
3794;DHT22;1912;51.358;12.282;2022-11-20T08:17:20;-3.80;1.00
3794;DHT22;1912;51.358;12.282;2022-11-20T08:19:46;-3.70;1.00
3794;DHT22;1912;51.358;12.282;2022-11-20T08:22:12;-3.70;1.00
3794;DHT22;1912;51.358;12.282;2022-11-20T08:24:38;-3.50;1.00
3794;DHT22;1912;51.358;12.282;2022-11-20T08:27:03;-3.30;1.00
3794;DHT22;1912;51.358;12.282;2022-11-20T08:29:29;-3.10;1.00
3794;DHT22;1912;51.358;12.282;2022-11-20T08:31:55;-3.00;1.00
3794;DHT22;1912;51.358;12.282;2022-11-20T08:34:20;-2.90;1.00
3794;DHT22;1912;51.358;12.282;2022-11-20T08:36:46;-3.00;1.00
3794;DHT22;1912;51.358;12.282;2022-11-20T08:39:12;-2.80;1.00
3794;DHT22;1912;51.358;12.282;2022-11-20T08:41:38;-2.70;1.00
3794;DHT22;1912;51.358;12.282;2022-11-20T08:44:06;-2.50;1.00
3794;DHT22;1912;51.358;12.282;2022-11-20T08:46:42;-2.60;1.00
3794;DHT22;1912;51.358;12.282;2022-11-20T08:49:10;-2.70;1.00
3794;DHT22;1912;51.358;12.282;2022-11-20T08:51:38;-2.70;1.00
3794;DHT22;1912;51.358;12.282;2022-11-20T08:54:04;-2.50;1.00
3794;DHT22;1912;51.358;12.282;2022-11-20T08:56:31;-2.40;1.00
3794;DHT22;1912;51.358;12.282;2022-11-20T08:58:57;-2.50;1.00
3794;DHT22;1912;51.358;12.282;2022-11-20T09:01:25;-2.60;1.00
3794;DHT22;1912;51.358;12.282;2022-11-20T09:03:51;-2.50;1.00
3794;DHT22;1912;51.358;12.282;2022-11-20T09:06:17;-2.40;1.00
3794;DHT22;1912;51.358;12.282;2022-11-20T09:08:43;-2.30;1.00
3794;DHT22;1912;51.358;12.282;2022-11-20T09:11:09;-2.30;1.00
3794;DHT22;1912;51.358;12.282;2022-11-20T09:13:36;-2.10;1.00
3794;DHT22;1912;51.358;12.282;2022-11-20T09:16:04;-2.30;1.00
3794;DHT22;1912;51.358;12.282;2022-11-20T09:18:32;-2.20;1.00
3794;DHT22;1912;51.358;12.282;2022-11-20T09:21:02;-2.10;1.00
3794;DHT22;1912;51.358;12.282;2022-11-20T09:23:34;-2.00;1.00
3794;DHT22;1912;51.358;12.282;2022-11-20T09:26:04;-1.90;1.00
3794;DHT22;1912;51.358;12.282;2022-11-20T09:28:32;-2.00;1.00
3794;DHT22;1912;51.358;12.282;2022-11-20T09:30:58;-2.10;1.00
3794;DHT22;1912;51.358;12.282;2022-11-20T09:33:24;-2.10;1.00
3794;DHT22;1912;51.358;12.282;2022-11-20T09:35:49;-2.20;1.00
3794;DHT22;1912;51.358;12.282;2022-11-20T09:38:15;-2.30;1.00
3794;DHT22;1912;51.358;12.282;2022-11-20T09:40:49;-2.40;1.00
3794;DHT22;1912;51.358;12.282;2022-11-20T09:44:28;-2.20;1.00
3794;DHT22;1912;51.358;12.282;2022-11-20T09:49:57;-2.00;1.00
3794;DHT22;1912;51.358;12.282;2022-11-20T09:55:12;-2.20;1.00
3794;DHT22;1912;51.358;12.282;2022-11-20T09:57:42;-2.20;1.00
3794;DHT22;1912;51.358;12.282;2022-11-20T10:00:11;-2.30;1.00
3794;DHT22;1912;51.358;12.282;2022-11-20T10:05:46;-2.60;1.00
3794;DHT22;1912;51.358;12.282;2022-11-20T10:16:44;-2.10;1.00
3794;DHT22;1912;51.358;12.282;2022-11-20T10:19:31;-2.20;1.00
3794;DHT22;1912;51.358;12.282;2022-11-20T10:31:11;-2.00;1.00
3794;DHT22;1912;51.358;12.282;2022-11-20T10:33:45;-1.80;1.00
3794;DHT22;1912;51.358;12.282;2022-11-20T10:36:28;-1.70;1.00
3794;DHT22;1912;51.358;12.282;2022-11-20T10:39:03;-1.70;1.00
3794;DHT22;1912;51.358;12.282;2022-11-20T10:41:43;-1.60;1.00
3794;DHT22;1912;51.358;12.282;2022-11-20T10:44:16;-1.50;1.00
3794;DHT22;1912;51.358;12.282;2022-11-20T10:47:12;-1.60;1.00
3794;DHT22;1912;51.358;12.282;2022-11-20T10:49:40;-1.50;1.00
3794;DHT22;1912;51.358;12.282;2022-11-20T10:52:13;-1.50;1.00
3794;DHT22;1912;51.358;12.282;2022-11-20T11:01:18;-1.40;1.00
3794;DHT22;1912;51.358;12.282;2022-11-20T11:03:47;-1.40;1.00
3794;DHT22;1912;51.358;12.282;2022-11-20T11:06:36;-1.30;1.00
3794;DHT22;1912;51.358;12.282;2022-11-20T11:09:32;-1.20;1.00
3794;DHT22;1912;51.358;12.282;2022-11-20T11:11:59;-1.10;1.00
3794;DHT22;1912;51.358;12.282;2022-11-20T11:14:25;-1.00;1.00
3794;DHT22;1912;51.358;12.282;2022-11-20T11:16:53;-1.00;1.00
3794;DHT22;1912;51.358;12.282;2022-11-20T11:19:19;-1.10;1.00
3794;DHT22;1912;51.358;12.282;2022-11-20T11:21:47;-1.00;1.00
3794;DHT22;1912;51.358;12.282;2022-11-20T11:24:24;-1.00;1.00
3794;DHT22;1912;51.358;12.282;2022-11-20T11:26:53;-1.00;1.00
3794;DHT22;1912;51.358;12.282;2022-11-20T11:29:22;-1.00;1.00
3794;DHT22;1912;51.358;12.282;2022-11-20T11:31:47;-0.90;1.00
3794;DHT22;1912;51.358;12.282;2022-11-20T11:34:16;-0.90;1.00
3794;DHT22;1912;51.358;12.282;2022-11-20T11:36:54;-0.90;1.00
3794;DHT22;1912;51.358;12.282;2022-11-20T11:39:22;-0.90;1.00
3794;DHT22;1912;51.358;12.282;2022-11-20T11:41:49;-0.80;1.00
3794;DHT22;1912;51.358;12.282;2022-11-20T11:47:04;-0.60;1.00
3794;DHT22;1912;51.358;12.282;2022-11-20T11:49:31;-0.80;1.00
3794;DHT22;1912;51.358;12.282;2022-11-20T11:54:53;-0.70;1.00
3794;DHT22;1912;51.358;12.282;2022-11-20T11:59:59;-0.70;1.00
3794;DHT22;1912;51.358;12.282;2022-11-20T12:08:23;-0.50;1.00
3794;DHT22;1912;51.358;12.282;2022-11-20T12:11:29;-0.50;1.00
3794;DHT22;1912;51.358;12.282;2022-11-20T12:16:40;-0.40;1.00
3794;DHT22;1912;51.358;12.282;2022-11-20T12:19:14;-0.30;1.00
3794;DHT22;1912;51.358;12.282;2022-11-20T12:25:04;-0.30;1.00
3794;DHT22;1912;51.358;12.282;2022-11-20T12:36:56;-0.10;1.00
3794;DHT22;1912;51.358;12.282;2022-11-20T12:42:21;-0.10;1.00
3794;DHT22;1912;51.358;12.282;2022-11-20T12:45:54;-0.10;1.00
3794;DHT22;1912;51.358;12.282;2022-11-20T12:56:53;0.10;1.00
3794;DHT22;1912;51.358;12.282;2022-11-20T13:03:11;0.30;1.00
3794;DHT22;1912;51.358;12.282;2022-11-20T13:08:36;0.30;1.00
3794;DHT22;1912;51.358;12.282;2022-11-20T13:14:11;0.40;1.00
3794;DHT22;1912;51.358;12.282;2022-11-20T13:19:35;0.40;1.00
3794;DHT22;1912;51.358;12.282;2022-11-20T13:22:01;0.50;1.00
3794;DHT22;1912;51.358;12.282;2022-11-20T13:24:29;0.60;1.00
3794;DHT22;1912;51.358;12.282;2022-11-20T13:29:31;0.60;1.00
3794;DHT22;1912;51.358;12.282;2022-11-20T13:32:06;0.50;1.00
3794;DHT22;1912;51.358;12.282;2022-11-20T13:34:56;0.60;1.00
3794;DHT22;1912;51.358;12.282;2022-11-20T13:37:33;0.60;1.00
3794;DHT22;1912;51.358;12.282;2022-11-20T13:42:44;0.60;1.00
3794;DHT22;1912;51.358;12.282;2022-11-20T13:45:29;0.60;1.00
3794;DHT22;1912;51.358;12.282;2022-11-20T13:47:57;0.70;1.00
3794;DHT22;1912;51.358;12.282;2022-11-20T13:51:06;0.70;1.00
3794;DHT22;1912;51.358;12.282;2022-11-20T13:53:55;0.60;1.00
3794;DHT22;1912;51.358;12.282;2022-11-20T14:02:26;0.70;1.00
3794;DHT22;1912;51.358;12.282;2022-11-20T14:04:56;0.70;1.00
3794;DHT22;1912;51.358;12.282;2022-11-20T14:07:27;0.70;1.00
3794;DHT22;1912;51.358;12.282;2022-11-20T14:09:59;0.70;1.00
3794;DHT22;1912;51.358;12.282;2022-11-20T14:12:30;0.80;1.00
3794;DHT22;1912;51.358;12.282;2022-11-20T14:14:57;0.70;1.00
3794;DHT22;1912;51.358;12.282;2022-11-20T14:17:33;0.70;1.00
3794;DHT22;1912;51.358;12.282;2022-11-20T14:20:06;0.60;1.00
3794;DHT22;1912;51.358;12.282;2022-11-20T14:22:36;0.40;1.00
3794;DHT22;1912;51.358;12.282;2022-11-20T14:27:38;0.30;1.00
3794;DHT22;1912;51.358;12.282;2022-11-20T14:30:13;0.30;1.00
3794;DHT22;1912;51.358;12.282;2022-11-20T14:32:41;0.20;1.00
3794;DHT22;1912;51.358;12.282;2022-11-20T14:35:09;0.20;1.00
3794;DHT22;1912;51.358;12.282;2022-11-20T14:37:40;0.20;1.00
3794;DHT22;1912;51.358;12.282;2022-11-20T14:40:45;0.20;1.00
3794;DHT22;1912;51.358;12.282;2022-11-20T14:43:27;0.20;1.00
3794;DHT22;1912;51.358;12.282;2022-11-20T14:46:07;0.00;1.00
3794;DHT22;1912;51.358;12.282;2022-11-20T14:48:54;0.00;1.00
3794;DHT22;1912;51.358;12.282;2022-11-20T14:51:35;-0.10;1.00
3794;DHT22;1912;51.358;12.282;2022-11-20T14:54:18;-0.10;1.00
3794;DHT22;1912;51.358;12.282;2022-11-20T14:56:57;-0.20;1.00
3794;DHT22;1912;51.358;12.282;2022-11-20T14:59:30;-0.20;1.00
3794;DHT22;1912;51.358;12.282;2022-11-20T15:02:00;-0.40;1.00
3794;DHT22;1912;51.358;12.282;2022-11-20T15:04:29;-0.40;1.00
3794;DHT22;1912;51.358;12.282;2022-11-20T15:06:56;-0.50;1.00
3794;DHT22;1912;51.358;12.282;2022-11-20T15:09:23;-0.50;1.00
3794;DHT22;1912;51.358;12.282;2022-11-20T15:12:01;-0.70;1.00
3794;DHT22;1912;51.358;12.282;2022-11-20T15:14:28;-0.70;1.00
3794;DHT22;1912;51.358;12.282;2022-11-20T15:16:55;-0.80;1.00
3794;DHT22;1912;51.358;12.282;2022-11-20T15:19:24;-0.90;1.00
3794;DHT22;1912;51.358;12.282;2022-11-20T15:21:50;-0.90;1.00
3794;DHT22;1912;51.358;12.282;2022-11-20T15:24:17;-0.90;1.00
3794;DHT22;1912;51.358;12.282;2022-11-20T15:26:45;-0.90;1.00
3794;DHT22;1912;51.358;12.282;2022-11-20T15:29:14;-1.00;1.00
3794;DHT22;1912;51.358;12.282;2022-11-20T15:31:44;-1.10;1.00
3794;DHT22;1912;51.358;12.282;2022-11-20T15:34:14;-1.10;1.00
3794;DHT22;1912;51.358;12.282;2022-11-20T15:36:41;-1.20;1.00
3794;DHT22;1912;51.358;12.282;2022-11-20T15:39:07;-1.20;1.00
3794;DHT22;1912;51.358;12.282;2022-11-20T15:41:36;-1.30;1.00
3794;DHT22;1912;51.358;12.282;2022-11-20T15:44:03;-1.40;1.00
3794;DHT22;1912;51.358;12.282;2022-11-20T15:46:32;-1.40;1.00
3794;DHT22;1912;51.358;12.282;2022-11-20T15:49:03;-1.50;1.00
3794;DHT22;1912;51.358;12.282;2022-11-20T15:51:31;-1.50;1.00
3794;DHT22;1912;51.358;12.282;2022-11-20T15:53:59;-1.60;1.00
3794;DHT22;1912;51.358;12.282;2022-11-20T15:56:26;-1.70;1.00
3794;DHT22;1912;51.358;12.282;2022-11-20T15:58:52;-1.70;1.00
3794;DHT22;1912;51.358;12.282;2022-11-20T16:01:20;-1.70;1.00
3794;DHT22;1912;51.358;12.282;2022-11-20T16:03:46;-1.80;1.00
3794;DHT22;1912;51.358;12.282;2022-11-20T16:06:12;-1.80;1.00
3794;DHT22;1912;51.358;12.282;2022-11-20T16:08:38;-1.80;1.00
3794;DHT22;1912;51.358;12.282;2022-11-20T16:11:04;-1.80;1.00
3794;DHT22;1912;51.358;12.282;2022-11-20T16:13:31;-1.90;1.00
3794;DHT22;1912;51.358;12.282;2022-11-20T16:16:31;-2.00;1.00
3794;DHT22;1912;51.358;12.282;2022-11-20T16:18:58;-2.00;1.00
3794;DHT22;1912;51.358;12.282;2022-11-20T16:21:25;-2.00;1.00
3794;DHT22;1912;51.358;12.282;2022-11-20T16:23:58;-2.00;1.00
3794;DHT22;1912;51.358;12.282;2022-11-20T16:26:25;-2.00;1.00
3794;DHT22;1912;51.358;12.282;2022-11-20T16:28:50;-2.10;1.00
3794;DHT22;1912;51.358;12.282;2022-11-20T16:31:18;-2.10;1.00
3794;DHT22;1912;51.358;12.282;2022-11-20T16:33:49;-2.10;1.00
3794;DHT22;1912;51.358;12.282;2022-11-20T16:36:16;-2.10;1.00
3794;DHT22;1912;51.358;12.282;2022-11-20T16:38:42;-2.10;1.00
3794;DHT22;1912;51.358;12.282;2022-11-20T16:41:08;-2.10;1.00
3794;DHT22;1912;51.358;12.282;2022-11-20T16:43:54;-2.10;1.00
3794;DHT22;1912;51.358;12.282;2022-11-20T16:46:26;-2.10;1.00
3794;DHT22;1912;51.358;12.282;2022-11-20T16:49:03;-2.00;1.00
3794;DHT22;1912;51.358;12.282;2022-11-20T16:51:31;-2.00;1.00
3794;DHT22;1912;51.358;12.282;2022-11-20T16:54:04;-2.00;1.00
3794;DHT22;1912;51.358;12.282;2022-11-20T16:56:30;-2.10;1.00
3794;DHT22;1912;51.358;12.282;2022-11-20T16:58:57;-2.20;1.00
3794;DHT22;1912;51.358;12.282;2022-11-20T17:01:24;-2.20;1.00
3794;DHT22;1912;51.358;12.282;2022-11-20T17:03:57;-2.20;1.00
3794;DHT22;1912;51.358;12.282;2022-11-20T17:06:32;-2.30;1.00
3794;DHT22;1912;51.358;12.282;2022-11-20T17:09:02;-2.30;1.00
3794;DHT22;1912;51.358;12.282;2022-11-20T17:11:28;-2.40;1.00
3794;DHT22;1912;51.358;12.282;2022-11-20T17:13:55;-2.40;1.00
3794;DHT22;1912;51.358;12.282;2022-11-20T17:16:23;-2.40;1.00
3794;DHT22;1912;51.358;12.282;2022-11-20T17:18:49;-2.50;1.00
3794;DHT22;1912;51.358;12.282;2022-11-20T17:21:16;-2.50;1.00
3794;DHT22;1912;51.358;12.282;2022-11-20T17:23:44;-2.40;1.00
3794;DHT22;1912;51.358;12.282;2022-11-20T17:26:15;-2.40;1.00
3794;DHT22;1912;51.358;12.282;2022-11-20T17:28:43;-2.30;1.00
3794;DHT22;1912;51.358;12.282;2022-11-20T17:31:15;-2.40;1.00
3794;DHT22;1912;51.358;12.282;2022-11-20T17:33:43;-2.30;1.00
3794;DHT22;1912;51.358;12.282;2022-11-20T17:36:11;-2.40;1.00
3794;DHT22;1912;51.358;12.282;2022-11-20T17:38:38;-2.30;1.00
3794;DHT22;1912;51.358;12.282;2022-11-20T17:41:06;-2.30;1.00
3794;DHT22;1912;51.358;12.282;2022-11-20T17:43:43;-2.30;1.00
3794;DHT22;1912;51.358;12.282;2022-11-20T17:46:20;-2.30;1.00
3794;DHT22;1912;51.358;12.282;2022-11-20T17:48:48;-2.30;1.00
3794;DHT22;1912;51.358;12.282;2022-11-20T17:51:19;-2.30;1.00
3794;DHT22;1912;51.358;12.282;2022-11-20T17:53:55;-2.30;1.00
3794;DHT22;1912;51.358;12.282;2022-11-20T17:56:22;-2.30;1.00
3794;DHT22;1912;51.358;12.282;2022-11-20T17:59:08;-2.30;1.00
3794;DHT22;1912;51.358;12.282;2022-11-20T18:01:36;-2.30;1.00
3794;DHT22;1912;51.358;12.282;2022-11-20T18:04:03;-2.30;1.00
3794;DHT22;1912;51.358;12.282;2022-11-20T18:06:30;-2.30;1.00